createdAt,value
2022-09-25T00:00:09.691Z,77.01074219
2022-09-25T00:01:08.852Z,76.45703125
2022-09-25T00:02:11.767Z,75.98046875
2022-09-25T00:03:11.430Z,75.64453125
2022-09-25T00:04:05.951Z,75.91796875
2022-09-25T00:05:08.922Z,75.92675781
2022-09-25T00:06:06.333Z,76.29394531
2022-09-25T00:07:03.664Z,76.40039063
2022-09-25T00:08:04.675Z,76.55371094
2022-09-25T00:09:01.873Z,76.59570313
2022-09-25T00:10:04.868Z,76.20703125
2022-09-25T00:11:07.444Z,76.15917969
2022-09-25T00:12:04.895Z,76.08007813
2022-09-25T00:13:04.921Z,76.43652344
2022-09-25T00:15:01.041Z,76.3125
2022-09-25T00:15:52.877Z,76.44726563
2022-09-25T00:16:55.131Z,76.47949219
2022-09-25T00:17:47.888Z,75.6953125
2022-09-25T00:18:47.861Z,76.03417969
2022-09-25T00:19:43.240Z,76.00390625
2022-09-25T00:20:44.322Z,76.07617188
2022-09-25T00:21:38.863Z,75.62011719
2022-09-25T00:22:39.446Z,76.05761719
2022-09-25T00:23:36.363Z,76.27539063
2022-09-25T00:24:35.949Z,75.96777344
2022-09-25T00:25:38.866Z,76.21386719
2022-09-25T00:26:48.673Z,76.30761719
2022-09-25T00:27:47.390Z,76.26269531
2022-09-25T00:29:46.266Z,76.15820313
2022-09-25T00:30:39.984Z,75.97363281
2022-09-25T00:31:41.039Z,75.7578125
2022-09-25T00:33:29.640Z,76.01464844
2022-09-25T00:34:54.841Z,75.55859375
2022-09-25T00:35:56.194Z,75.47265625
2022-09-25T00:36:58.977Z,75.53320313
2022-09-25T00:37:59.475Z,75.60839844
2022-09-25T00:38:55.060Z,75.98828125
2022-09-25T00:39:56.281Z,76.06347656
2022-09-25T00:40:51.514Z,76.35351563
2022-09-25T00:41:51.508Z,76.34082031
2022-09-25T00:42:47.177Z,76.4921875
2022-09-25T00:44:42.362Z,76.18457031
2022-09-25T00:45:44.609Z,76.23632813
2022-09-25T00:46:42.800Z,76.40234375
2022-09-25T00:47:46.075Z,76.42382813
2022-09-25T00:48:38.765Z,76.51855469
2022-09-25T00:49:41.757Z,76.53417969
2022-09-25T00:50:37.255Z,76.28417969
2022-09-25T00:51:42.388Z,76.53417969
2022-09-25T00:52:39.400Z,76.36523438
2022-09-25T00:53:41.761Z,76.05957031
2022-09-25T00:54:36.039Z,76.37597656
2022-09-25T00:55:37.599Z,76.41699219
2022-09-25T00:56:33.006Z,76.79882813
2022-09-25T00:57:38.348Z,77.08105469
2022-09-25T00:59:43.030Z,76.8203125
2022-09-25T01:00:37.232Z,76.96582031
2022-09-25T01:01:37.571Z,76.98632813
2022-09-25T01:02:36.125Z,77.03125
2022-09-25T01:04:37.283Z,77.23144531
2022-09-25T01:05:44.228Z,77.33496094
2022-09-25T01:06:38.179Z,77.23925781
2022-09-25T01:07:40.720Z,77.34960938
2022-09-25T01:09:41.057Z,77.45507813
2022-09-25T01:10:35.647Z,77.15917969
2022-09-25T01:11:38.228Z,77.38476563
2022-09-25T01:12:33.480Z,77.27148438
2022-09-25T01:13:39.221Z,77.41992188
2022-09-25T01:14:38.597Z,77.67578125
2022-09-25T01:15:39.218Z,77.90625
2022-09-25T01:17:03.481Z,77.99511719
2022-09-25T01:17:44.436Z,77.85644531
2022-09-25T01:18:43.376Z,77.83691406
2022-09-25T01:19:46.459Z,78.01269531
2022-09-25T01:20:48.254Z,78.3515625
2022-09-25T01:21:49.535Z,78.50585938
2022-09-25T01:22:48.089Z,78.67480469
2022-09-25T01:23:52.795Z,78.62304688
2022-09-25T01:24:54.880Z,78.90136719
2022-09-25T01:25:56.915Z,79.11230469
2022-09-25T01:27:02.960Z,79.29785156
2022-09-25T01:28:00.908Z,78.94824219
2022-09-25T01:29:04.616Z,79.61621094
2022-09-25T01:29:57.338Z,79.58300781
2022-09-25T01:30:57.065Z,79.69726563
2022-09-25T01:31:56.123Z,79.72949219
2022-09-25T01:32:57.546Z,79.49316406
2022-09-25T01:33:59.000Z,79.890625
2022-09-25T01:34:57.421Z,80.12695313
2022-09-25T01:35:57.116Z,80.14160156
2022-09-25T01:36:54.576Z,79.98339844
2022-09-25T01:37:59.027Z,79.72265625
2022-09-25T01:38:53.258Z,79.55175781
2022-09-25T01:39:57.858Z,79.65527344
2022-09-25T01:40:54.485Z,79.82226563
2022-09-25T01:42:05.022Z,79.70214844
2022-09-25T01:43:03.528Z,79.31054688
2022-09-25T01:44:59.119Z,79.69824219
2022-09-25T01:46:01.459Z,79.71289063
2022-09-25T01:47:00.660Z,79.72460938
2022-09-25T01:48:05.396Z,79.34472656
2022-09-25T01:49:07.367Z,79.44140625
2022-09-25T01:50:20.097Z,79.79882813
2022-09-25T01:51:13.502Z,79.89648438
2022-09-25T01:52:16.727Z,79.73242188
2022-09-25T01:54:13.717Z,79.36523438
2022-09-25T01:54:47.320Z,79.05371094
2022-09-25T01:55:44.994Z,78.97558594
2022-09-25T01:56:45.983Z,79.08105469
2022-09-25T01:57:45.072Z,78.77832031
2022-09-25T01:59:44.011Z,78.23925781
2022-09-25T02:00:40.941Z,78.26367188
2022-09-25T02:01:41.412Z,78.45605469
2022-09-25T02:02:41.880Z,78.18945313
2022-09-25T02:04:35.443Z,78.15722656
2022-09-25T02:05:35.325Z,78.06933594
2022-09-25T02:06:30.884Z,78.29101563
2022-09-25T02:07:30.791Z,78.46386719
2022-09-25T02:08:32.618Z,78.40527344
2022-09-25T02:09:31.691Z,77.64648438
2022-09-25T02:10:27.954Z,77.73730469
2022-09-25T02:11:28.302Z,77.40820313
2022-09-25T02:12:23.020Z,77.20019531
2022-09-25T02:13:23.199Z,77.31542969
2022-09-25T02:15:20.280Z,77.20703125
2022-09-25T02:16:16.178Z,77.45898438
2022-09-25T02:17:16.421Z,77.6328125
2022-09-25T02:18:19.119Z,77.68457031
2022-09-25T02:19:18.181Z,77.71484375
2022-09-25T02:20:16.144Z,78.02539063
2022-09-25T02:21:15.920Z,78.27246094
2022-09-25T02:22:10.497Z,77.78613281
2022-09-25T02:23:16.579Z,77.8203125
2022-09-25T02:24:09.015Z,77.80859375
2022-09-25T02:25:07.866Z,78.20019531
2022-09-25T02:26:04.214Z,78.01757813
2022-09-25T02:27:03.683Z,78.29003906
2022-09-25T02:27:57.981Z,78.28027344
2022-09-25T02:29:02.171Z,78.484375
2022-09-25T02:29:54.182Z,78.09179688
2022-09-25T02:30:54.166Z,78.09082031
2022-09-25T02:31:49.516Z,77.94921875
2022-09-25T02:32:48.986Z,77.69433594
2022-09-25T02:33:53.622Z,78.08203125
2022-09-25T02:34:52.518Z,78.46582031
2022-09-25T02:35:50.610Z,78.34960938
2022-09-25T02:36:58.960Z,77.99902344
2022-09-25T02:37:59.712Z,77.8359375
2022-09-25T02:38:58.390Z,78.16601563
2022-09-25T02:40:01.237Z,78.23242188
2022-09-25T02:40:53.941Z,77.97167969
2022-09-25T02:41:57.509Z,78.05371094
2022-09-25T02:42:50.280Z,78.22753906
2022-09-25T02:44:59.862Z,77.98242188
2022-09-25T02:47:06.458Z,77.62304688
2022-09-25T02:47:28.078Z,76.90625
2022-09-25T02:49:34.412Z,76.51757813
2022-09-25T02:50:32.466Z,76.30273438
2022-09-25T02:51:32.098Z,76.48828125
2022-09-25T02:52:28.536Z,76.48535156
2022-09-25T02:54:24.499Z,76.54296875
2022-09-25T02:55:25.537Z,75.99511719
2022-09-25T02:56:21.744Z,76.14355469
2022-09-25T02:57:27.198Z,76.49023438
2022-09-25T02:59:24.556Z,76.97265625
2022-09-25T03:00:21.875Z,76.57910156
2022-09-25T03:01:23.212Z,76.93847656
2022-09-25T03:02:18.991Z,77.296875
2022-09-25T03:03:26.103Z,77.5703125
2022-09-25T03:05:17.810Z,76.84082031
2022-09-25T03:06:16.887Z,77.49316406
2022-09-25T03:07:21.435Z,77.36621094
2022-09-25T03:08:18.542Z,77.70410156
2022-09-25T03:10:17.896Z,77.49316406
2022-09-25T03:11:18.390Z,77.70703125
2022-09-25T03:12:20.770Z,78.15332031
2022-09-25T03:13:16.016Z,78.07421875
2022-09-25T03:15:13.013Z,77.85742188
2022-09-25T03:16:12.959Z,77.5546875
2022-09-25T03:17:09.618Z,77.93945313
2022-09-25T03:18:09.625Z,77.91210938
2022-09-25T03:20:09.424Z,77.93945313
2022-09-25T03:21:04.140Z,78.40625
2022-09-25T03:22:04.808Z,78.53320313
2022-09-25T03:22:59.793Z,78.140625
2022-09-25T03:24:55.238Z,78.56054688
2022-09-25T03:26:00.204Z,79.05761719
2022-09-25T03:26:54.088Z,79.12304688
2022-09-25T03:27:54.020Z,79.53417969
2022-09-25T03:28:48.413Z,79.18945313
2022-09-25T03:30:33.679Z,78.99023438
2022-09-25T03:31:14.312Z,79.02050781
2022-09-25T03:32:12.357Z,78.79882813
2022-09-25T03:33:13.841Z,78.62988281
2022-09-25T03:34:08.314Z,78.95605469
2022-09-25T03:35:09.181Z,79.234375
2022-09-25T03:36:06.387Z,79.27636719
2022-09-25T03:37:07.956Z,79.35351563
2022-09-25T03:38:03.208Z,79.23632813
2022-09-25T03:39:16.288Z,78.89648438
2022-09-25T03:40:14.469Z,79.21875
2022-09-25T03:41:18.015Z,79.12011719
2022-09-25T03:42:10.983Z,79.59277344
2022-09-25T03:45:09.141Z,79.45800781
2022-09-25T03:46:04.452Z,79.17675781
2022-09-25T03:47:12.214Z,79.453125
2022-09-25T03:48:05.052Z,79.18457031
2022-09-25T03:49:05.779Z,79.34765625
2022-09-25T03:50:01.319Z,79.47070313
2022-09-25T03:51:00.954Z,79.60449219
2022-09-25T03:52:00.246Z,79.75292969
2022-09-25T03:53:03.649Z,79.45019531
2022-09-25T03:55:01.252Z,79.11523438
2022-09-25T03:55:56.229Z,79.23730469
2022-09-25T03:56:57.587Z,79.34863281
2022-09-25T03:57:51.925Z,78.90820313
2022-09-25T03:59:51.547Z,79.22167969
2022-09-25T04:00:49.736Z,79.08789063
2022-09-25T04:01:54.245Z,79.390625
2022-09-25T04:02:46.294Z,79.20117188
2022-09-25T04:03:48.715Z,79.171875
2022-09-25T04:04:42.686Z,79.08398438
2022-09-25T04:05:46.203Z,78.89355469
2022-09-25T04:07:34.254Z,78.73925781
2022-09-25T04:08:15.880Z,78.44824219
2022-09-25T04:09:13.369Z,78.54394531
2022-09-25T04:10:13.858Z,77.86523438
2022-09-25T04:11:09.720Z,78.38867188
2022-09-25T04:12:09.378Z,77.98925781
2022-09-25T04:13:05.883Z,78.2890625
2022-09-25T04:15:01.643Z,78.28222656
2022-09-25T04:16:01.352Z,78.01660156
2022-09-25T04:17:00.867Z,77.9765625
2022-09-25T04:17:55.971Z,77.83496094
2022-09-25T04:18:59.989Z,77.55664063
2022-09-25T04:19:58.964Z,78.14746094
2022-09-25T04:21:02.514Z,78.31445313
2022-09-25T04:21:55.122Z,78.42578125
2022-09-25T04:22:54.599Z,78.46679688
2022-09-25T04:24:51.838Z,78.21972656
2022-09-25T04:25:48.835Z,78.22460938
2022-09-25T04:26:51.781Z,78.20019531
2022-09-25T04:27:46.020Z,78.16308594
2022-09-25T04:28:47.672Z,78.47070313
2022-09-25T04:29:47.968Z,77.99414063
2022-09-25T04:30:49.651Z,78.296875
2022-09-25T04:31:44.275Z,78.25976563
2022-09-25T04:32:46.531Z,78.50390625
2022-09-25T04:33:44.217Z,78.26171875
2022-09-25T04:34:46.562Z,78.05664063
2022-09-25T04:35:40.023Z,77.81933594
2022-09-25T04:36:39.498Z,78.03125
2022-09-25T04:37:40.234Z,78.03320313
2022-09-25T04:42:02.628Z,76.66699219
2022-09-25T04:42:24.914Z,76.140625
2022-09-25T04:43:22.444Z,76.015625
2022-09-25T04:45:22.297Z,76.07128906
2022-09-25T04:46:21.871Z,75.859375
2022-09-25T04:46:22.958Z,75.859375
2022-09-25T04:47:21.694Z,75.8515625
2022-09-25T04:48:19.625Z,76.22851563
2022-09-25T04:50:15.686Z,76.54003906
2022-09-25T04:51:15.664Z,76.63183594
2022-09-25T04:52:10.859Z,76.79296875
2022-09-25T04:53:07.830Z,76.67578125
2022-09-25T04:55:05.501Z,76.47363281
2022-09-25T04:56:06.054Z,76.4765625
2022-09-25T04:57:01.634Z,77.01757813
2022-09-25T04:58:07.522Z,76.78808594
2022-09-25T04:59:59.227Z,77.07910156
2022-09-25T05:00:59.983Z,76.86328125
2022-09-25T05:01:55.520Z,77.00683594
2022-09-25T05:02:55.556Z,77.02734375
2022-09-25T05:04:50.003Z,76.58691406
2022-09-25T05:05:50.648Z,76.80371094
2022-09-25T05:06:42.689Z,77.2421875
2022-09-25T05:07:42.835Z,76.68652344
2022-09-25T05:09:37.456Z,76.9140625
2022-09-25T05:10:40.971Z,77.22753906
2022-09-25T05:11:32.647Z,76.71875
2022-09-25T05:12:34.292Z,76.89648438
2022-09-25T05:15:15.692Z,76.92480469
2022-09-25T05:15:37.577Z,76.7265625
2022-09-25T05:16:36.128Z,76.57519531
2022-09-25T05:17:11.431Z,76.66015625
2022-09-25T05:18:11.982Z,76.32519531
2022-09-25T05:20:07.475Z,76.25195313
2022-09-25T05:21:10.742Z,76.32226563
2022-09-25T05:22:03.591Z,76.50097656
2022-09-25T05:23:02.287Z,76.66894531
2022-09-25T05:24:03.929Z,76.81054688
2022-09-25T05:25:02.041Z,76.59277344
2022-09-25T05:26:02.192Z,76.81347656
2022-09-25T05:26:57.084Z,76.45117188
2022-09-25T05:27:58.975Z,76.38769531
2022-09-25T05:30:03.936Z,77.06835938
2022-09-25T05:31:02.141Z,77.16992188
2022-09-25T05:32:05.465Z,77.2890625
2022-09-25T05:33:02.114Z,76.9609375
2022-09-25T05:34:06.820Z,77.37890625
2022-09-25T05:35:04.585Z,77.5234375
2022-09-25T05:36:04.252Z,77.42089844
2022-09-25T05:36:59.697Z,77.62304688
2022-09-25T05:38:00.146Z,77.64257813
2022-09-25T05:38:58.030Z,77.52148438
2022-09-25T05:39:59.787Z,77.53027344
2022-09-25T05:40:55.521Z,77.44921875
2022-09-25T05:41:58.383Z,77.87597656
2022-09-25T05:42:53.954Z,77.76660156
2022-09-25T05:44:49.288Z,77.703125
2022-09-25T05:45:47.203Z,77.71679688
2022-09-25T05:46:48.694Z,77.5234375
2022-09-25T05:47:44.132Z,77.74804688
2022-09-25T05:49:46.786Z,77.29003906
2022-09-25T05:50:49.282Z,77.12109375
2022-09-25T05:51:42.519Z,77.18554688
2022-09-25T05:52:46.072Z,77.26464844
2022-09-25T05:54:43.446Z,77.38183594
2022-09-25T05:55:46.971Z,77.14355469
2022-09-25T05:56:44.467Z,76.70996094
2022-09-25T05:58:31.018Z,76.57519531
2022-09-25T06:00:12.041Z,76.38964844
2022-09-25T06:01:15.976Z,76.53320313
2022-09-25T06:02:13.038Z,76.82128906
2022-09-25T06:03:15.653Z,76.70410156
2022-09-25T06:04:12.029Z,76.70117188
2022-09-25T06:05:15.585Z,76.69628906
2022-09-25T06:06:10.995Z,76.6484375
2022-09-25T06:07:16.228Z,76.45996094
2022-09-25T06:08:12.529Z,76.62597656
2022-09-25T06:10:11.588Z,76.84277344
2022-09-25T06:11:16.284Z,77.0859375
2022-09-25T06:12:10.628Z,77.02539063
2022-09-25T06:13:13.517Z,77.20703125
2022-09-25T06:14:08.636Z,77.22070313
2022-09-25T06:15:11.524Z,77.03320313
2022-09-25T06:16:05.979Z,76.89453125
2022-09-25T06:17:09.140Z,77.04296875
2022-09-25T06:18:02.866Z,76.95117188
2022-09-25T06:20:02.335Z,76.89453125
2022-09-25T06:21:06.188Z,77.31152344
2022-09-25T06:22:01.864Z,77.22070313
2022-09-25T06:23:01.340Z,77.22070313
2022-09-25T06:25:00.152Z,76.88476563
2022-09-25T06:26:05.724Z,77.43652344
2022-09-25T06:27:01.015Z,77.60546875
2022-09-25T06:27:59.868Z,77.70019531
2022-09-25T06:29:59.095Z,77.35644531
2022-09-25T06:31:01.052Z,77.26953125
2022-09-25T06:31:57.609Z,77.24511719
2022-09-25T06:33:03.409Z,77.09765625
2022-09-25T06:35:01.381Z,77.16796875
2022-09-25T06:36:01.210Z,77.1796875
2022-09-25T06:36:59.088Z,77.20214844
2022-09-25T06:38:00.631Z,77.11328125
2022-09-25T06:38:57.193Z,76.84667969
2022-09-25T06:40:01.818Z,76.640625
2022-09-25T06:40:59.556Z,76.98925781
2022-09-25T06:41:57.120Z,77.09375
2022-09-25T06:43:33.869Z,76.57617188
2022-09-25T06:44:16.949Z,76.65625
2022-09-25T06:45:19.563Z,76.31152344
2022-09-25T06:46:14.393Z,76.0703125
2022-09-25T06:47:18.522Z,76.12695313
2022-09-25T06:47:22.494Z,76.12695313
2022-09-25T06:48:15.985Z,76.21972656
2022-09-25T06:50:06.661Z,75.79003906
2022-09-25T06:51:06.134Z,75.92675781
2022-09-25T06:52:01.392Z,75.38867188
2022-09-25T06:53:01.518Z,75.78027344
2022-09-25T06:53:56.911Z,76.390625
2022-09-25T06:54:56.095Z,76.47753906
2022-09-25T06:55:51.345Z,76.76855469
2022-09-25T06:56:53.476Z,75.99804688
2022-09-25T06:57:46.101Z,76.234375
2022-09-25T06:58:48.005Z,76.41015625
2022-09-25T06:59:44.375Z,75.97558594
2022-09-25T07:00:47.612Z,76.15527344
2022-09-25T07:01:43.364Z,76.015625
2022-09-25T07:02:46.816Z,76.56445313
2022-09-25T07:03:41.607Z,76.47558594
2022-09-25T07:04:43.863Z,76.47949219
2022-09-25T07:05:37.442Z,76.37792969
2022-09-25T07:06:41.001Z,76.26660156
2022-09-25T07:07:37.461Z,76.11523438
2022-09-25T07:09:33.189Z,75.89941406
2022-09-25T07:10:34.619Z,76.2265625
2022-09-25T07:11:27.353Z,76.44335938
2022-09-25T07:12:34.978Z,76.31933594
2022-09-25T07:15:08.155Z,75.2734375
2022-09-25T07:16:07.818Z,75.66601563
2022-09-25T07:17:05.020Z,75.45507813
2022-09-25T07:19:09.648Z,75.31835938
2022-09-25T07:19:29.619Z,75.66894531
2022-09-25T07:20:27.654Z,74.98144531
2022-09-25T07:21:27.182Z,74.93847656
2022-09-25T07:22:22.342Z,74.35449219
2022-09-25T07:23:21.835Z,74.64355469
2022-09-25T07:25:16.384Z,74.99023438
2022-09-25T07:26:11.048Z,75.04492188
2022-09-25T07:27:11.415Z,75.16894531
2022-09-25T07:28:06.707Z,75.234375
2022-09-25T07:30:01.203Z,74.80273438
2022-09-25T07:31:02.238Z,74.94628906
2022-09-25T07:31:57.620Z,74.96582031
2022-09-25T07:33:00.127Z,75.36230469
2022-09-25T07:34:51.450Z,74.56640625
2022-09-25T07:35:46.058Z,74.73828125
2022-09-25T07:36:46.658Z,74.57128906
2022-09-25T07:37:41.314Z,74.58398438
2022-09-25T07:39:36.133Z,74.85253906
2022-09-25T07:40:38.054Z,74.27441406
2022-09-25T07:41:30.609Z,74.26660156
2022-09-25T07:42:30.019Z,74.64160156
2022-09-25T07:43:24.783Z,74.84765625
2022-09-25T07:45:22.943Z,74.18652344
2022-09-25T07:46:19.034Z,74.57910156
2022-09-25T07:47:18.161Z,74.21191406
2022-09-25T07:48:12.961Z,73.93261719
2022-09-25T07:50:11.997Z,73.42773438
2022-09-25T07:50:15.497Z,73.42773438
2022-09-25T07:51:08.129Z,73.40917969
2022-09-25T07:52:31.726Z,73.28125
2022-09-25T07:53:11.754Z,73.5859375
2022-09-25T07:55:09.647Z,71.52636719
2022-09-25T07:56:06.825Z,72.04199219
2022-09-25T07:57:05.052Z,72.31738281
2022-09-25T07:58:00.873Z,73.06445313
2022-09-25T07:59:01.388Z,73.25683594
2022-09-25T07:59:56.808Z,72.74023438
2022-09-25T08:00:57.009Z,72.43457031
2022-09-25T08:01:54.171Z,71.86132813
2022-09-25T08:02:54.025Z,72.70703125
2022-09-25T08:04:49.673Z,72.4765625
2022-09-25T08:05:45.035Z,72.49902344
2022-09-25T08:06:46.164Z,71.57617188
2022-09-25T08:07:42.324Z,71.5625
2022-09-25T08:08:40.561Z,72.08691406
2022-09-25T08:09:40.514Z,72.31738281
2022-09-25T08:10:36.073Z,72.6484375
2022-09-25T08:11:38.217Z,71.98144531
2022-09-25T08:12:33.658Z,72.25683594
2022-09-25T08:14:29.844Z,71.63964844
2022-09-25T08:15:33.000Z,71.77734375
2022-09-25T08:16:27.288Z,70.80273438
2022-09-25T08:17:26.796Z,70.8203125
2022-09-25T08:18:22.385Z,71.71777344
2022-09-25T08:19:23.050Z,71.19238281
2022-09-25T08:20:19.385Z,69.95800781
2022-09-25T08:21:22.899Z,70.49121094
2022-09-25T08:22:17.397Z,69.79199219
2022-09-25T08:23:18.309Z,69.40722656
2022-09-25T08:24:15.671Z,69.48632813
2022-09-25T08:25:16.656Z,69.97460938
2022-09-25T08:26:13.132Z,69.61230469
2022-09-25T08:27:16.891Z,69.94824219
2022-09-25T08:28:13.165Z,69.72851563
2022-09-25T08:29:10.071Z,70.07714844
2022-09-25T08:30:11.331Z,69.79980469
2022-09-25T08:31:09.851Z,69.03125
2022-09-25T08:32:06.195Z,68.91796875
2022-09-25T08:33:15.144Z,69.29589844
2022-09-25T08:33:15.948Z,69.29589844
2022-09-25T08:34:35.815Z,69.28320313
2022-09-25T08:34:36.327Z,69.28320313
2022-09-25T08:34:39.362Z,69.28320313
2022-09-25T08:35:07.973Z,68.67480469
2022-09-25T08:36:05.199Z,68.11328125
2022-09-25T08:37:07.024Z,67.24804688
2022-09-25T08:38:04.619Z,67.859375
2022-09-25T08:39:08.286Z,68.66601563
2022-09-25T08:40:03.418Z,67.91015625
2022-09-25T08:41:03.207Z,67.29296875
2022-09-25T08:41:59.628Z,67.94042969
2022-09-25T08:43:03.749Z,67.92871094
2022-09-25T08:43:57.515Z,68.22558594
2022-09-25T08:45:19.884Z,67.87597656
2022-09-25T08:45:20.438Z,67.87597656
2022-09-25T08:46:00.885Z,67.39160156
2022-09-25T08:46:59.088Z,67.88964844
2022-09-25T08:48:01.772Z,66.6484375
2022-09-25T08:49:26.952Z,64.87207031
2022-09-25T08:50:08.067Z,63.9765625
2022-09-25T08:51:09.779Z,62.87597656
2022-09-25T08:52:06.811Z,61.43359375
2022-09-25T08:53:08.627Z,62.73632813
2022-09-25T08:54:06.614Z,62.55859375
2022-09-25T08:55:05.093Z,63.67089844
2022-09-25T08:56:07.165Z,63.61523438
2022-09-25T08:57:05.369Z,61.89257813
2022-09-25T08:58:06.592Z,62.06347656
2022-09-25T09:00:06.030Z,60.97949219
2022-09-25T09:01:03.568Z,60.58789063
2022-09-25T09:02:05.671Z,61.13476563
2022-09-25T09:03:02.014Z,60.77636719
2022-09-25T09:04:01.930Z,61.29199219
2022-09-25T09:04:57.987Z,59.11914063
2022-09-25T09:05:55.721Z,60.5
2022-09-25T09:07:25.177Z,59.5234375
2022-09-25T09:07:25.675Z,59.5234375
2022-09-25T09:07:26.452Z,59.5234375
2022-09-25T09:07:57.651Z,60.19238281
2022-09-25T09:09:59.579Z,60.31054688
2022-09-25T09:10:54.741Z,59.48535156
2022-09-25T09:11:54.967Z,59.62988281
2022-09-25T09:12:54.479Z,59.91503906
2022-09-25T09:14:54.402Z,59.61328125
2022-09-25T09:15:52.543Z,59.92773438
2022-09-25T09:16:53.304Z,58.36132813
2022-09-25T09:17:50.230Z,58.92285156
2022-09-25T09:19:49.875Z,59.41503906
2022-09-25T09:20:51.731Z,59.90722656
2022-09-25T09:21:49.239Z,59.74609375
2022-09-25T09:22:50.316Z,58.77441406
2022-09-25T09:24:49.861Z,58.46582031
2022-09-25T09:25:51.443Z,57.67773438
2022-09-25T09:26:55.348Z,55.98925781
2022-09-25T09:27:53.095Z,58.49804688
2022-09-25T09:29:53.957Z,56.76953125
2022-09-25T09:31:33.861Z,56.78808594
2022-09-25T09:32:14.462Z,56.35449219
2022-09-25T09:33:14.763Z,57.29394531
2022-09-25T09:34:16.426Z,56.74609375
2022-09-25T09:35:13.908Z,54.83886719
2022-09-25T09:36:16.306Z,55.54785156
2022-09-25T09:37:13.551Z,56.45117188
2022-09-25T09:38:15.309Z,56.40917969
2022-09-25T09:39:12.632Z,56.22265625
2022-09-25T09:40:14.451Z,54.71289063
2022-09-25T09:41:11.648Z,55.51757813
2022-09-25T09:42:12.383Z,54.65917969
2022-09-25T09:43:08.591Z,55.45898438
2022-09-25T09:45:08.027Z,54.73632813
2022-09-25T09:46:11.602Z,55.6796875
2022-09-25T09:47:06.713Z,55.68261719
2022-09-25T09:48:09.465Z,55.99511719
2022-09-25T09:49:03.051Z,55.359375
2022-09-25T09:50:05.080Z,55.93457031
2022-09-25T09:51:05.359Z,55.52636719
2022-09-25T09:52:03.329Z,54.91503906
2022-09-25T09:53:05.621Z,55.35742188
2022-09-25T09:54:03.734Z,56.95019531
2022-09-25T09:55:04.164Z,56.7890625
2022-09-25T09:56:06.488Z,55.46191406
2022-09-25T09:57:01.749Z,55.5234375
2022-09-25T09:58:03.221Z,54.39257813
2022-09-25T10:00:04.578Z,55.90917969
2022-09-25T10:00:05.759Z,55.90917969
2022-09-25T10:01:11.126Z,56.47753906
2022-09-25T10:01:22.145Z,56.47753906
2022-09-25T10:01:29.081Z,56.47753906
2022-09-25T10:01:59.229Z,54.96972656
2022-09-25T10:02:55.607Z,55.29101563
2022-09-25T10:04:50.427Z,56.40917969
2022-09-25T10:05:51.898Z,56.30078125
2022-09-25T10:06:47.097Z,55.96972656
2022-09-25T10:07:47.526Z,56.21484375
2022-09-25T10:08:42.813Z,56.19921875
2022-09-25T10:09:42.956Z,55.421875
2022-09-25T10:10:39.932Z,55.90332031
2022-09-25T10:11:41.514Z,56.83398438
2022-09-25T10:12:38.510Z,56.6640625
2022-09-25T10:14:37.298Z,54.92578125
2022-09-25T10:15:38.943Z,53.953125
2022-09-25T10:16:36.028Z,53.71582031
2022-09-25T10:17:36.535Z,55.17675781
2022-09-25T10:18:33.787Z,54.79589844
2022-09-25T10:20:33.340Z,54.83691406
2022-09-25T10:20:53.597Z,54.71386719
2022-09-25T10:21:52.513Z,54.03613281
2022-09-25T10:22:51.738Z,54.15429688
2022-09-25T10:24:50.560Z,54.55078125
2022-09-25T10:25:46.741Z,54.98535156
2022-09-25T10:26:47.522Z,54.82128906
2022-09-25T10:27:43.939Z,54.20019531
2022-09-25T10:28:47.774Z,54.9453125
2022-09-25T10:29:41.447Z,55.75292969
2022-09-25T10:30:42.750Z,55.22949219
2022-09-25T10:31:39.059Z,55.49414063
2022-09-25T10:32:39.877Z,55.72460938
2022-09-25T10:33:36.117Z,55.65625
2022-09-25T10:34:34.970Z,51.85546875
2022-09-25T10:35:34.875Z,53.09375
2022-09-25T10:36:30.322Z,54.13671875
2022-09-25T10:37:33.090Z,54.58203125
2022-09-25T10:38:26.466Z,52.33984375
2022-09-25T10:39:43.714Z,53.33789063
2022-09-25T10:39:46.361Z,53.33789063
2022-09-25T10:40:23.933Z,53.03027344
2022-09-25T10:41:19.158Z,53.75390625
2022-09-25T10:42:19.257Z,53.67871094
2022-09-25T10:43:16.167Z,54.50585938
2022-09-25T10:44:18.823Z,54.05273438
2022-09-25T10:45:11.708Z,54.15917969
2022-09-25T10:46:11.913Z,54.64257813
2022-09-25T10:47:07.109Z,52.67773438
2022-09-25T10:48:07.082Z,53.58007813
2022-09-25T10:50:04.866Z,54.58984375
2022-09-25T10:50:57.522Z,54.85253906
2022-09-25T10:52:21.900Z,54.02929688
2022-09-25T10:53:02.402Z,54.80761719
2022-09-25T10:55:01.499Z,55.76464844
2022-09-25T10:55:57.207Z,56.265625
2022-09-25T10:56:57.843Z,56.56054688
2022-09-25T10:57:53.576Z,56.61523438
2022-09-25T10:58:54.405Z,56.78320313
2022-09-25T10:59:50.213Z,55.59277344
2022-09-25T11:00:48.476Z,56.09472656
2022-09-25T11:01:49.259Z,56.44726563
2022-09-25T11:02:45.021Z,56.29492188
2022-09-25T11:03:45.740Z,56.88769531
2022-09-25T11:04:41.449Z,55.84667969
2022-09-25T11:05:44.570Z,54.22167969
2022-09-25T11:06:38.833Z,55.28515625
2022-09-25T11:07:38.682Z,54.78515625
2022-09-25T11:08:34.409Z,55.94238281
2022-09-25T11:09:35.078Z,55.85449219
2022-09-25T11:10:30.946Z,56.66699219
2022-09-25T11:11:31.528Z,54.84472656
2022-09-25T11:12:27.368Z,55.38378906
2022-09-25T11:13:28.169Z,55.86425781
2022-09-25T11:14:23.768Z,55.16699219
2022-09-25T11:15:26.937Z,55.37402344
2022-09-25T11:16:21.310Z,55.3984375
2022-09-25T11:17:20.923Z,54.66699219
2022-09-25T11:18:17.203Z,55.94921875
2022-09-25T11:19:17.364Z,55.41113281
2022-09-25T11:20:13.012Z,55.33203125
2022-09-25T11:21:16.171Z,55.87011719
2022-09-25T11:22:10.477Z,55.34570313
2022-09-25T11:23:10.256Z,54.68164063
2022-09-25T11:24:06.033Z,54.64550781
2022-09-25T11:25:06.050Z,54.36230469
2022-09-25T11:26:01.909Z,54.81542969
2022-09-25T11:27:40.082Z,54.84472656
2022-09-25T11:28:20.035Z,56.20605469
2022-09-25T11:30:17.684Z,56.95019531
2022-09-25T11:31:13.036Z,56.65136719
2022-09-25T11:32:13.061Z,55.27832031
2022-09-25T11:33:08.357Z,55.08300781
2022-09-25T11:34:08.532Z,55.80175781
2022-09-25T11:35:03.809Z,56.36230469
2022-09-25T11:36:04.069Z,56.3515625
2022-09-25T11:37:00.245Z,54.61425781
2022-09-25T11:38:03.109Z,52.90039063
2022-09-25T11:38:55.962Z,54.05566406
2022-09-25T11:39:58.826Z,53.64257813
2022-09-25T11:40:51.804Z,54.390625
2022-09-25T11:41:52.022Z,53.74121094
2022-09-25T11:42:48.841Z,53.87695313
2022-09-25T11:43:48.972Z,53.54492188
2022-09-25T11:44:45.279Z,53.60058594